createdAt,value
2022-12-31T00:01:29.658Z,13.59
2022-12-31T00:03:57.094Z,13.74
2022-12-31T00:06:29.823Z,13.82
2022-12-31T00:08:57.708Z,13.65
2022-12-31T00:11:24.529Z,13.68
2022-12-31T00:13:51.408Z,13.70
2022-12-31T00:16:23.743Z,13.61
2022-12-31T00:18:52.816Z,13.59
2022-12-31T00:21:19.970Z,13.49
2022-12-31T00:23:46.749Z,13.68
2022-12-31T00:26:16.483Z,13.74
2022-12-31T00:28:43.716Z,13.74
2022-12-31T00:31:14.754Z,13.68
2022-12-31T00:33:41.763Z,13.61
2022-12-31T00:36:10.016Z,13.65
2022-12-31T00:38:37.410Z,13.74
2022-12-31T00:41:04.921Z,13.94
2022-12-31T00:43:34.777Z,13.91
2022-12-31T00:46:02.916Z,13.98
2022-12-31T00:48:29.557Z,13.95
2022-12-31T00:50:56.408Z,14.00
2022-12-31T00:53:23.462Z,13.98
2022-12-31T00:55:50.358Z,14.08
2022-12-31T00:58:16.863Z,14.01
2022-12-31T01:00:44.217Z,14.04
2022-12-31T01:03:10.785Z,14.01
2022-12-31T01:05:37.575Z,13.94
2022-12-31T01:08:06.379Z,14.05
2022-12-31T01:10:51.524Z,14.30
2022-12-31T01:13:18.161Z,14.17
2022-12-31T01:15:44.765Z,14.32
2022-12-31T01:18:11.958Z,14.04
2022-12-31T01:20:41.240Z,14.15
2022-12-31T01:23:09.028Z,14.20
2022-12-31T01:25:36.518Z,13.93
2022-12-31T01:28:04.260Z,14.25
2022-12-31T01:30:31.132Z,14.36
2022-12-31T01:32:57.682Z,14.26
2022-12-31T01:35:24.574Z,14.38
2022-12-31T01:37:51.337Z,14.31
2022-12-31T01:40:17.882Z,14.31
2022-12-31T01:42:44.360Z,14.40
2022-12-31T01:45:13.595Z,14.34
2022-12-31T01:47:45.645Z,14.17
2022-12-31T01:50:17.216Z,14.18
2022-12-31T01:52:55.587Z,14.42
2022-12-31T01:55:34.499Z,14.37
2022-12-31T01:58:06.817Z,14.21
2022-12-31T02:00:34.205Z,14.02
2022-12-31T02:03:00.823Z,14.12
2022-12-31T02:05:33.406Z,14.18
2022-12-31T02:07:59.958Z,14.19
2022-12-31T02:10:26.543Z,14.16
2022-12-31T02:12:53.041Z,14.15
2022-12-31T02:15:23.150Z,14.00
2022-12-31T02:18:09.996Z,13.97
2022-12-31T02:21:08.044Z,14.07
2022-12-31T02:23:50.092Z,14.17
2022-12-31T02:26:16.468Z,14.05
2022-12-31T02:29:27.384Z,14.11
2022-12-31T02:32:12.691Z,14.16
2022-12-31T02:34:47.804Z,14.29
2022-12-31T02:37:15.386Z,14.42
2022-12-31T02:39:43.357Z,14.44
2022-12-31T02:42:10.829Z,14.63
2022-12-31T02:44:39.034Z,14.73
2022-12-31T02:47:08.556Z,14.62
2022-12-31T02:50:12.447Z,14.74
2022-12-31T02:52:51.168Z,14.62
2022-12-31T02:55:49.480Z,14.46
2022-12-31T02:59:01.403Z,14.37
2022-12-31T03:01:54.213Z,14.07
2022-12-31T03:04:34.447Z,14.37
2022-12-31T03:07:12.169Z,14.08
2022-12-31T03:09:39.213Z,14.01
2022-12-31T03:12:27.747Z,13.94
2022-12-31T03:14:54.296Z,13.87
2022-12-31T03:17:20.969Z,13.85
2022-12-31T03:20:23.402Z,13.86
2022-12-31T03:22:49.921Z,13.87
2022-12-31T03:25:37.884Z,14.06
2022-12-31T03:28:10.275Z,14.00
2022-12-31T03:30:39.912Z,13.91
2022-12-31T03:33:07.134Z,13.97
2022-12-31T03:35:35.767Z,13.92
2022-12-31T03:38:03.073Z,13.77
2022-12-31T03:40:31.054Z,13.80
2022-12-31T03:42:57.731Z,13.97
2022-12-31T03:45:24.296Z,14.16
2022-12-31T03:47:50.817Z,14.27
2022-12-31T03:50:18.735Z,14.35
2022-12-31T03:52:45.276Z,14.29
2022-12-31T03:55:12.403Z,14.35
2022-12-31T03:57:39.116Z,14.36
2022-12-31T04:00:07.778Z,14.64
2022-12-31T04:02:34.448Z,14.64
2022-12-31T04:05:01.082Z,14.87
2022-12-31T04:07:27.636Z,14.81
2022-12-31T04:09:54.186Z,14.79
2022-12-31T04:12:20.694Z,14.85
2022-12-31T04:14:47.237Z,15.02
2022-12-31T04:17:13.879Z,15.21
2022-12-31T04:19:40.719Z,15.07
2022-12-31T04:22:07.311Z,15.07
2022-12-31T04:24:33.852Z,15.16
2022-12-31T04:27:07.080Z,15.04
2022-12-31T04:29:34.169Z,14.94
2022-12-31T04:32:00.891Z,15.28
2022-12-31T04:34:27.580Z,15.39
2022-12-31T04:36:54.095Z,15.28
2022-12-31T04:39:20.705Z,15.20
2022-12-31T04:41:47.220Z,15.40
2022-12-31T04:44:13.678Z,15.35
2022-12-31T04:46:40.206Z,15.42
2022-12-31T04:49:07.708Z,15.26
2022-12-31T04:51:34.330Z,15.13
2022-12-31T04:54:01.269Z,15.09
2022-12-31T04:56:28.223Z,14.95
2022-12-31T04:58:55.069Z,14.97
2022-12-31T05:01:21.911Z,14.94
2022-12-31T05:03:48.797Z,14.89
2022-12-31T05:06:18.274Z,14.91
2022-12-31T05:08:44.936Z,15.00
2022-12-31T05:11:11.584Z,15.07
2022-12-31T05:13:38.737Z,14.97
2022-12-31T05:16:05.869Z,14.85
2022-12-31T05:18:32.976Z,14.59
2022-12-31T05:20:59.632Z,14.47
2022-12-31T05:23:26.345Z,14.44
2022-12-31T05:25:53.380Z,14.52
2022-12-31T05:28:20.529Z,14.56
2022-12-31T05:30:50.881Z,14.75
2022-12-31T05:33:18.429Z,14.80
2022-12-31T05:35:45.207Z,14.63
2022-12-31T05:38:11.736Z,14.62
2022-12-31T05:40:38.260Z,14.69
2022-12-31T05:43:04.765Z,14.63
2022-12-31T05:45:31.584Z,14.71
2022-12-31T05:47:58.408Z,14.58
2022-12-31T05:50:25.084Z,14.53
2022-12-31T05:52:56.006Z,14.65
2022-12-31T05:55:22.637Z,14.83
2022-12-31T05:57:49.179Z,14.84
2022-12-31T06:00:15.964Z,14.76
2022-12-31T06:02:42.493Z,14.79
2022-12-31T06:05:09.241Z,14.94
2022-12-31T06:07:35.763Z,14.67
2022-12-31T06:10:04.547Z,14.80
2022-12-31T06:12:31.097Z,14.87
2022-12-31T06:14:57.601Z,14.78
2022-12-31T06:17:24.337Z,14.94
2022-12-31T06:19:50.876Z,14.93
2022-12-31T06:22:17.544Z,14.94
2022-12-31T06:24:44.131Z,15.02
2022-12-31T06:27:10.747Z,14.87
2022-12-31T06:29:37.370Z,14.97
2022-12-31T06:32:04.094Z,15.09
2022-12-31T06:34:30.631Z,14.99
2022-12-31T06:36:57.480Z,14.96
2022-12-31T06:39:24.001Z,15.12
2022-12-31T06:41:50.612Z,15.00
2022-12-31T06:44:17.100Z,15.13
2022-12-31T06:46:43.633Z,15.16
2022-12-31T06:49:10.384Z,15.19
2022-12-31T06:51:36.892Z,15.29
2022-12-31T06:54:03.423Z,15.30
2022-12-31T06:56:34.459Z,15.31
2022-12-31T06:59:01.971Z,15.33
2022-12-31T07:01:51.440Z,15.42
2022-12-31T07:04:49.774Z,15.38
2022-12-31T07:07:35.257Z,15.18
2022-12-31T07:10:59.857Z,15.31
2022-12-31T07:13:49.332Z,15.40
2022-12-31T07:16:40.618Z,15.37
2022-12-31T07:19:32.301Z,15.47
2022-12-31T07:22:00.203Z,15.38
2022-12-31T07:24:27.123Z,15.32
2022-12-31T07:27:11.611Z,15.61
2022-12-31T07:30:05.384Z,15.62
2022-12-31T07:33:12.025Z,15.56
2022-12-31T07:36:01.393Z,15.48
2022-12-31T07:38:55.902Z,15.66
2022-12-31T07:41:34.798Z,15.61
2022-12-31T07:44:17.109Z,15.66
2022-12-31T07:46:56.701Z,15.57
2022-12-31T07:49:24.908Z,15.73
2022-12-31T07:51:51.981Z,15.47
2022-12-31T07:54:19.141Z,15.51
2022-12-31T07:56:46.545Z,15.48
2022-12-31T07:59:46.158Z,15.77
2022-12-31T08:02:21.752Z,15.79
2022-12-31T08:04:59.705Z,15.69
2022-12-31T08:07:48.475Z,15.64
2022-12-31T08:10:27.225Z,15.85
2022-12-31T08:13:01.719Z,15.91
2022-12-31T08:15:30.761Z,15.97
2022-12-31T08:17:57.787Z,16.23
2022-12-31T08:20:25.622Z,16.34
2022-12-31T08:23:11.182Z,16.19
2022-12-31T08:25:45.279Z,16.55
2022-12-31T08:28:19.828Z,16.50
2022-12-31T08:31:10.919Z,16.71
2022-12-31T08:33:44.962Z,16.49
2022-12-31T08:36:23.047Z,16.78
2022-12-31T08:38:58.204Z,16.54
2022-12-31T08:41:45.626Z,16.58
2022-12-31T08:44:33.594Z,16.52
2022-12-31T08:47:03.298Z,16.52
2022-12-31T08:49:33.066Z,16.25
2022-12-31T08:52:01.075Z,16.32
2022-12-31T08:54:28.319Z,16.36
2022-12-31T08:57:04.667Z,16.52
2022-12-31T08:59:44.172Z,16.74
2022-12-31T09:02:48.586Z,16.51
2022-12-31T09:05:25.866Z,16.76
2022-12-31T09:08:46.511Z,16.80
2022-12-31T09:11:22.852Z,16.82
2022-12-31T09:14:03.979Z,16.63
2022-12-31T09:16:41.964Z,16.87
2022-12-31T09:19:10.055Z,16.92
2022-12-31T09:21:38.237Z,16.98
2022-12-31T09:24:09.361Z,16.78
2022-12-31T09:27:06.612Z,16.71
2022-12-31T09:29:45.012Z,17.24
2022-12-31T09:32:45.841Z,17.41
2022-12-31T09:35:36.370Z,17.46
2022-12-31T09:38:23.098Z,17.49
2022-12-31T09:41:30.220Z,17.80
2022-12-31T09:44:28.825Z,17.67
2022-12-31T09:47:10.154Z,17.59
2022-12-31T09:49:51.312Z,17.82
2022-12-31T09:52:36.112Z,17.73
2022-12-31T09:55:21.571Z,17.73
2022-12-31T09:58:00.278Z,18.21
2022-12-31T10:00:40.253Z,18.06
2022-12-31T10:03:18.924Z,18.19
2022-12-31T10:06:27.200Z,18.34
2022-12-31T10:09:13.391Z,18.42
2022-12-31T10:12:26.652Z,18.44
2022-12-31T10:15:12.696Z,18.96
2022-12-31T10:18:06.999Z,18.96
2022-12-31T10:21:01.358Z,18.79
2022-12-31T10:24:05.138Z,18.79
2022-12-31T10:26:52.904Z,18.51
2022-12-31T10:29:31.880Z,18.69
2022-12-31T10:32:20.068Z,18.50
2022-12-31T10:35:12.105Z,18.76
2022-12-31T10:38:17.658Z,18.91
2022-12-31T10:41:10.235Z,19.09
2022-12-31T10:43:45.933Z,19.56
2022-12-31T10:46:30.687Z,19.92
2022-12-31T10:49:41.104Z,20.05
2022-12-31T10:52:25.005Z,19.63
2022-12-31T10:55:18.847Z,19.67
2022-12-31T10:58:11.209Z,19.58
2022-12-31T11:00:52.173Z,19.80
2022-12-31T11:03:39.909Z,19.67
2022-12-31T11:06:26.133Z,19.35
2022-12-31T11:09:14.781Z,19.19
2022-12-31T11:12:05.121Z,19.45
2022-12-31T11:14:59.564Z,19.50
2022-12-31T11:17:53.629Z,19.48
2022-12-31T11:20:25.669Z,19.41
2022-12-31T11:23:15.217Z,19.34
2022-12-31T11:26:16.008Z,19.40
2022-12-31T11:28:45.587Z,19.46
2022-12-31T11:31:31.045Z,19.45
2022-12-31T11:34:18.711Z,19.67
2022-12-31T11:36:54.538Z,19.40
2022-12-31T11:39:39.430Z,19.49
2022-12-31T11:42:18.206Z,19.62
2022-12-31T11:45:13.290Z,19.57
2022-12-31T11:51:11.909Z,19.65
2022-12-31T11:53:57.492Z,19.57
2022-12-31T11:56:26.114Z,19.71
2022-12-31T11:58:54.213Z,19.46
2022-12-31T12:01:47.995Z,19.62
2022-12-31T12:04:14.738Z,19.47
2022-12-31T12:06:42.805Z,19.62
2022-12-31T12:09:27.091Z,19.52
2022-12-31T12:12:04.923Z,19.64
2022-12-31T12:14:38.010Z,19.77
2022-12-31T12:17:09.542Z,19.66
2022-12-31T12:19:42.827Z,19.72
2022-12-31T12:22:19.730Z,19.95
2022-12-31T12:25:03.631Z,20.07
2022-12-31T12:27:32.389Z,20.01
2022-12-31T12:30:24.651Z,19.65
2022-12-31T12:33:01.863Z,19.58
2022-12-31T12:35:31.786Z,19.84
2022-12-31T12:38:06.787Z,19.47
2022-12-31T12:40:35.133Z,19.67
2022-12-31T12:43:02.861Z,19.83
2022-12-31T12:45:38.316Z,19.85
2022-12-31T12:48:18.412Z,20.00
2022-12-31T12:50:46.275Z,19.61
2022-12-31T12:53:37.588Z,19.68
2022-12-31T12:56:15.307Z,19.81
2022-12-31T12:58:57.148Z,19.77
2022-12-31T13:01:52.351Z,19.76
2022-12-31T13:04:44.816Z,19.85
2022-12-31T13:07:38.018Z,19.57
2022-12-31T13:10:07.608Z,19.48
2022-12-31T13:13:13.899Z,19.44
2022-12-31T13:15:42.767Z,19.56
2022-12-31T13:18:31.403Z,19.18
2022-12-31T13:21:04.344Z,19.22
2022-12-31T13:23:42.424Z,19.44
2022-12-31T13:26:27.737Z,19.15
2022-12-31T13:28:55.369Z,19.39
2022-12-31T13:31:26.674Z,19.61
2022-12-31T13:33:58.746Z,19.37
2022-12-31T13:36:27.785Z,19.48
2022-12-31T13:38:56.226Z,19.52
2022-12-31T13:41:35.083Z,19.47
2022-12-31T13:44:36.621Z,19.63
2022-12-31T13:47:10.695Z,19.63
2022-12-31T13:49:44.661Z,19.37
2022-12-31T13:52:31.081Z,19.59
2022-12-31T13:55:21.569Z,19.43
2022-12-31T13:57:52.670Z,19.48
2022-12-31T14:00:27.269Z,19.40
2022-12-31T14:03:08.955Z,19.15
2022-12-31T14:05:40.542Z,19.24
2022-12-31T14:08:07.205Z,19.02
2022-12-31T14:10:39.776Z,19.05
2022-12-31T14:13:21.656Z,18.86
2022-12-31T14:16:08.404Z,18.92
2022-12-31T14:18:52.770Z,18.82
2022-12-31T14:21:25.635Z,18.69
2022-12-31T14:24:10.006Z,18.60
2022-12-31T14:26:41.941Z,18.61
2022-12-31T14:29:29.181Z,18.50
2022-12-31T14:32:03.746Z,18.51
2022-12-31T14:34:41.198Z,18.59
2022-12-31T14:37:12.999Z,18.53
2022-12-31T14:39:55.170Z,18.48
2022-12-31T14:42:37.996Z,18.48
2022-12-31T14:45:29.125Z,18.28
2022-12-31T14:48:22.253Z,18.22
2022-12-31T14:50:48.896Z,18.16
2022-12-31T14:53:22.401Z,18.23
2022-12-31T14:55:57.989Z,18.32
2022-12-31T14:58:37.423Z,18.23
2022-12-31T15:01:19.839Z,18.25
2022-12-31T15:03:46.638Z,18.10
2022-12-31T15:06:34.135Z,17.95
2022-12-31T15:09:20.729Z,17.65
2022-12-31T15:12:38.153Z,17.51
2022-12-31T15:15:16.570Z,17.33
2022-12-31T15:18:07.516Z,17.14
2022-12-31T15:21:00.939Z,17.06
2022-12-31T15:23:42.367Z,16.90
2022-12-31T15:26:23.950Z,17.05
2022-12-31T15:29:23.781Z,17.14
2022-12-31T15:31:50.803Z,16.95
2022-12-31T15:34:36.771Z,16.90
2022-12-31T15:37:06.503Z,16.97
2022-12-31T15:39:32.937Z,16.99
2022-12-31T15:44:55.438Z,17.07
2022-12-31T15:47:30.849Z,17.14
2022-12-31T15:50:00.504Z,17.04
2022-12-31T15:52:42.882Z,16.97
2022-12-31T15:55:20.281Z,16.63
2022-12-31T15:57:47.198Z,16.66
2022-12-31T16:00:21.925Z,16.49
2022-12-31T16:02:52.228Z,16.38
2022-12-31T16:05:21.579Z,16.28
2022-12-31T16:07:48.693Z,16.28
2022-12-31T16:10:20.582Z,16.14
2022-12-31T16:12:47.322Z,15.96
2022-12-31T16:15:20.903Z,15.74
2022-12-31T16:17:58.615Z,15.56
2022-12-31T16:20:30.113Z,15.34
2022-12-31T16:22:57.541Z,15.23
2022-12-31T16:25:33.168Z,15.23
2022-12-31T16:28:01.861Z,15.32
2022-12-31T16:30:30.791Z,15.20
2022-12-31T16:33:04.183Z,15.23
2022-12-31T16:35:39.082Z,15.31
2022-12-31T16:38:15.621Z,15.32
2022-12-31T16:40:44.434Z,15.36
2022-12-31T16:43:24.378Z,15.34
2022-12-31T16:45:51.859Z,15.19
2022-12-31T16:48:19.780Z,15.16
2022-12-31T16:50:52.523Z,15.10
2022-12-31T16:53:21.400Z,15.12
2022-12-31T16:55:56.471Z,15.22
2022-12-31T16:58:29.976Z,15.05
2022-12-31T17:01:15.750Z,15.10
2022-12-31T17:03:45.629Z,15.34
2022-12-31T17:06:15.410Z,15.34
2022-12-31T17:09:14.558Z,15.65
2022-12-31T17:11:53.332Z,15.96
2022-12-31T17:14:23.212Z,15.86
2022-12-31T17:17:03.319Z,15.54
2022-12-31T17:19:36.321Z,15.77
2022-12-31T17:22:04.508Z,16.19
2022-12-31T17:24:31.570Z,16.17
2022-12-31T17:27:04.812Z,16.23
2022-12-31T17:29:31.542Z,16.05
2022-12-31T17:32:02.187Z,15.95
2022-12-31T17:34:34.318Z,15.66
2022-12-31T17:37:06.854Z,15.91
2022-12-31T17:39:54.489Z,15.66
2022-12-31T17:42:28.393Z,15.53
2022-12-31T17:45:00.220Z,15.51
2022-12-31T17:47:33.920Z,15.44
2022-12-31T17:50:06.087Z,15.40
2022-12-31T17:52:32.871Z,15.62
2022-12-31T17:54:59.563Z,15.34
2022-12-31T17:57:27.786Z,15.35
2022-12-31T17:59:54.622Z,15.86
2022-12-31T18:02:21.423Z,15.77
2022-12-31T18:04:48.089Z,15.63
2022-12-31T18:07:14.721Z,15.39
2022-12-31T18:09:41.327Z,15.52
2022-12-31T18:12:08.349Z,15.58
2022-12-31T18:14:35.063Z,15.53
2022-12-31T18:17:01.844Z,15.41
2022-12-31T18:22:16.216Z,15.23
2022-12-31T18:24:43.680Z,15.13
2022-12-31T18:27:16.397Z,15.33
2022-12-31T18:29:43.551Z,15.72
2022-12-31T18:32:30.492Z,15.69
2022-12-31T18:34:57.032Z,15.83
2022-12-31T18:37:25.263Z,15.66
2022-12-31T18:39:52.117Z,15.73
2022-12-31T18:42:19.292Z,15.55
2022-12-31T18:44:46.178Z,15.35
2022-12-31T18:47:18.534Z,15.35
2022-12-31T18:49:45.658Z,15.14
2022-12-31T18:52:21.379Z,14.97
2022-12-31T18:54:48.775Z,14.87
2022-12-31T18:57:15.997Z,14.82
2022-12-31T18:59:42.974Z,14.53
2022-12-31T19:02:18.549Z,14.66
2022-12-31T19:04:45.457Z,14.74
2022-12-31T19:07:12.077Z,14.82
2022-12-31T19:09:47.184Z,14.81
2022-12-31T19:12:15.261Z,15.04
2022-12-31T19:14:41.825Z,14.82
2022-12-31T19:19:34.740Z,15.04
2022-12-31T19:22:01.597Z,14.94
2022-12-31T19:24:28.461Z,14.90
2022-12-31T19:26:55.262Z,14.85
2022-12-31T19:29:27.013Z,14.72
2022-12-31T19:31:53.730Z,14.77
2022-12-31T19:34:20.785Z,14.84
2022-12-31T19:36:47.436Z,14.80
2022-12-31T19:39:18.845Z,14.95
2022-12-31T19:41:46.049Z,14.88
2022-12-31T19:44:17.486Z,14.82
2022-12-31T19:46:44.834Z,14.88
2022-12-31T19:49:12.725Z,14.77
2022-12-31T19:51:39.399Z,14.74
2022-12-31T19:54:06.582Z,14.66
2022-12-31T19:56:33.146Z,14.80
2022-12-31T19:59:07.298Z,14.64
2022-12-31T20:01:34.197Z,14.74
2022-12-31T20:04:00.941Z,14.63
2022-12-31T20:06:27.577Z,14.66
2022-12-31T20:08:54.176Z,14.65
2022-12-31T20:11:22.447Z,14.84
2022-12-31T20:13:50.224Z,14.97
2022-12-31T20:16:18.376Z,15.10
2022-12-31T20:18:47.093Z,15.07
2022-12-31T20:21:17.865Z,14.85
2022-12-31T20:23:44.682Z,15.22
2022-12-31T20:26:11.486Z,14.84
2022-12-31T20:28:38.521Z,14.80
2022-12-31T20:31:07.112Z,14.75
2022-12-31T20:33:34.682Z,14.99
2022-12-31T20:36:03.144Z,14.96
2022-12-31T20:38:29.694Z,14.99
2022-12-31T20:41:02.701Z,14.88
2022-12-31T20:43:33.296Z,14.97
2022-12-31T20:46:12.438Z,15.08
2022-12-31T20:48:41.521Z,14.67
2022-12-31T20:51:08.246Z,14.87
2022-12-31T20:53:34.795Z,15.07
2022-12-31T20:56:09.493Z,15.03
2022-12-31T20:58:36.762Z,14.86
2022-12-31T21:01:10.016Z,14.68
2022-12-31T21:06:25.634Z,14.85
2022-12-31T21:08:52.268Z,14.92
2022-12-31T21:11:37.548Z,14.74
2022-12-31T21:14:04.305Z,14.72
2022-12-31T21:16:31.010Z,14.66
2022-12-31T21:18:58.020Z,14.44
2022-12-31T21:21:24.626Z,14.63
2022-12-31T21:23:51.536Z,14.77
2022-12-31T21:26:18.358Z,14.88
2022-12-31T21:28:45.115Z,14.90
2022-12-31T21:31:13.349Z,14.55
2022-12-31T21:33:40.470Z,14.61
2022-12-31T21:36:07.758Z,14.67
2022-12-31T21:38:36.340Z,14.62
2022-12-31T21:41:04.500Z,14.56
2022-12-31T21:43:31.142Z,14.54
2022-12-31T21:46:07.004Z,14.06
2022-12-31T21:48:33.937Z,13.81
2022-12-31T21:51:13.156Z,14.32
2022-12-31T21:53:40.333Z,13.95
2022-12-31T21:56:08.476Z,14.07
2022-12-31T21:59:13.491Z,13.90
2022-12-31T22:01:58.873Z,14.17
2022-12-31T22:05:00.535Z,14.22
2022-12-31T22:07:12.313Z,14.27
2022-12-31T22:09:38.850Z,14.20
2022-12-31T22:12:05.804Z,14.32
2022-12-31T22:14:32.562Z,14.42
2022-12-31T22:16:59.093Z,14.41
2022-12-31T22:19:26.023Z,14.64
2022-12-31T22:21:52.578Z,14.50
2022-12-31T22:24:19.137Z,14.18
2022-12-31T22:26:46.946Z,14.21
2022-12-31T22:29:14.029Z,13.80
2022-12-31T22:31:40.640Z,13.71
2022-12-31T22:34:07.339Z,13.62
2022-12-31T22:36:34.756Z,13.56
2022-12-31T22:39:01.390Z,13.64
2022-12-31T22:41:28.694Z,13.87
2022-12-31T22:44:03.184Z,14.18
2022-12-31T22:46:31.309Z,14.20
2022-12-31T22:48:59.517Z,14.41
2022-12-31T22:51:56.669Z,14.09
2022-12-31T22:54:14.513Z,13.75
2022-12-31T22:56:41.277Z,13.99
2022-12-31T22:59:08.003Z,13.90
2022-12-31T23:01:34.680Z,13.71
2022-12-31T23:04:01.387Z,13.65
2022-12-31T23:06:29.013Z,14.02
2022-12-31T23:09:14.231Z,14.19
2022-12-31T23:11:41.190Z,13.80
2022-12-31T23:14:28.884Z,14.05
2022-12-31T23:17:30.039Z,14.01
2022-12-31T23:20:17.061Z,14.20
2022-12-31T23:23:01.928Z,13.78
2022-12-31T23:25:31.910Z,14.09
2022-12-31T23:27:58.630Z,14.22
2022-12-31T23:30:25.292Z,13.91
2022-12-31T23:32:51.878Z,13.95
2022-12-31T23:35:18.371Z,13.92
2022-12-31T23:37:45.040Z,13.74
2022-12-31T23:40:17.230Z,13.94
2022-12-31T23:42:47.388Z,13.91
2022-12-31T23:45:13.925Z,13.92
2022-12-31T23:47:40.538Z,13.87
2022-12-31T23:50:07.826Z,13.57
2022-12-31T23:52:34.427Z,13.52
2022-12-31T23:55:01.041Z,13.47
2022-12-31T23:57:27.581Z,13.29
2022-12-31T23:59:54.119Z,13.46
